UAE77Q OMDB-OOMS
Flight info
| Callsign | UAE77Q |
|---|---|
| Flight time | 0h 44m |
| Altitude | 25000 |
| Route | ANVIX L223 TARDI N629 MUSUK T511 MCT |
| Aircraft | A359/H-SDE2E3GHIJ3J4J5LM1ORWXY/LB1D1 |
Departure
| Time | 2026-05-08 16:29 |
|---|---|
| Airport | Dubai International Airport (OMDB) |
Arrival
| Time | 2026-05-08 17:14 |
|---|---|
| Airport | Muscat International Airport (OOMS) |
| Time | Latitude | Longitude | Altitude | Speed | Heading |
|---|---|---|---|---|---|
| 2026-05-08 15:51 | 25.24750 | 55.36162 | 28 ft | 0 kts | 31° |
| 2026-05-08 16:10 | 25.24743 | 55.36158 | 27 ft | 2 kts | 31° |
| 2026-05-08 16:11 | 25.24728 | 55.36149 | 27 ft | 2 kts | 27° |
| 2026-05-08 16:11 | 25.24713 | 55.36141 | 26 ft | 2 kts | 22° |
| 2026-05-08 16:11 | 25.24698 | 55.36135 | 26 ft | 2 kts | 15° |
| 2026-05-08 16:11 | 25.24682 | 55.36132 | 26 ft | 2 kts | 1° |
| 2026-05-08 16:12 | 25.24665 | 55.36134 | 26 ft | 2 kts | 335° |
| 2026-05-08 16:12 | 25.24652 | 55.36145 | 27 ft | 2 kts | 308° |
| 2026-05-08 16:12 | 25.24647 | 55.36152 | 27 ft | 1 kts | 302° |
| 2026-05-08 16:14 | 25.24648 | 55.36150 | 27 ft | 2 kts | 302° |
| 2026-05-08 16:15 | 25.24664 | 55.36121 | 25 ft | 6 kts | 300° |
| 2026-05-08 16:15 | 25.24689 | 55.36074 | 28 ft | 8 kts | 300° |
| 2026-05-08 16:15 | 25.24722 | 55.36013 | 28 ft | 10 kts | 301° |
| 2026-05-08 16:15 | 25.24764 | 55.35938 | 28 ft | 13 kts | 302° |
| 2026-05-08 16:16 | 25.24814 | 55.35849 | 28 ft | 15 kts | 302° |
| 2026-05-08 16:16 | 25.24872 | 55.35748 | 28 ft | 16 kts | 302° |
| 2026-05-08 16:16 | 25.24941 | 55.35641 | 28 ft | 18 kts | 305° |
| 2026-05-08 16:16 | 25.25016 | 55.35521 | 28 ft | 20 kts | 300° |
| 2026-05-08 16:17 | 25.25085 | 55.35385 | 28 ft | 21 kts | 300° |
| 2026-05-08 16:17 | 25.25155 | 55.35266 | 27 ft | 19 kts | 306° |
| 2026-05-08 16:17 | 25.25234 | 55.35144 | 27 ft | 20 kts | 302° |
| 2026-05-08 16:17 | 25.25306 | 55.35015 | 27 ft | 17 kts | 302° |
| 2026-05-08 16:18 | 25.25338 | 55.34958 | 27 ft | 9 kts | 300° |
| 2026-05-08 16:18 | 25.25380 | 55.34901 | 27 ft | 11 kts | 325° |
| 2026-05-08 16:18 | 25.25453 | 55.34899 | 27 ft | 12 kts | 24° |
| 2026-05-08 16:18 | 25.25514 | 55.34937 | 27 ft | 10 kts | 32° |
| 2026-05-08 16:19 | 25.25583 | 55.34983 | 27 ft | 11 kts | 30° |
| 2026-05-08 16:19 | 25.25617 | 55.35006 | 27 ft | 0 kts | 30° |
| 2026-05-08 16:20 | 25.25618 | 55.35006 | 27 ft | 0 kts | 30° |
| 2026-05-08 16:20 | 25.25629 | 55.35013 | 27 ft | 6 kts | 30° |
| 2026-05-08 16:20 | 25.25680 | 55.35044 | 27 ft | 10 kts | 30° |
| 2026-05-08 16:20 | 25.25736 | 55.35099 | 27 ft | 12 kts | 62° |
| 2026-05-08 16:21 | 25.25741 | 55.35187 | 27 ft | 12 kts | 66° |
| 2026-05-08 16:21 | 25.25805 | 55.35245 | 27 ft | 12 kts | 32° |
| 2026-05-08 16:21 | 25.25847 | 55.35274 | 27 ft | 7 kts | 31° |
| 2026-05-08 16:21 | 25.25892 | 55.35303 | 27 ft | 8 kts | 30° |
| 2026-05-08 16:22 | 25.25931 | 55.35328 | 27 ft | 0 kts | 30° |
| 2026-05-08 16:22 | 25.25955 | 55.35345 | 27 ft | 6 kts | 34° |
| 2026-05-08 16:23 | 25.25979 | 55.35386 | 27 ft | 7 kts | 65° |
| 2026-05-08 16:23 | 25.25997 | 55.35449 | 27 ft | 10 kts | 79° |
| 2026-05-08 16:23 | 25.25976 | 55.35558 | 27 ft | 17 kts | 117° |
| 2026-05-08 16:23 | 25.25912 | 55.35679 | 27 ft | 17 kts | 121° |
| 2026-05-08 16:24 | 25.25848 | 55.35792 | 28 ft | 19 kts | 122° |
| 2026-05-08 16:24 | 25.25765 | 55.35943 | 28 ft | 26 kts | 121° |
| 2026-05-08 16:24 | 25.25669 | 55.36118 | 28 ft | 28 kts | 121° |
| 2026-05-08 16:24 | 25.25565 | 55.36303 | 28 ft | 29 kts | 122° |
| 2026-05-08 16:25 | 25.25456 | 55.36497 | 28 ft | 30 kts | 122° |
| 2026-05-08 16:25 | 25.25353 | 55.36686 | 28 ft | 28 kts | 121° |
| 2026-05-08 16:25 | 25.25251 | 55.36868 | 28 ft | 27 kts | 122° |
| 2026-05-08 16:25 | 25.25151 | 55.37048 | 30 ft | 28 kts | 122° |
| 2026-05-08 16:26 | 25.25050 | 55.37232 | 33 ft | 28 kts | 122° |
| 2026-05-08 16:26 | 25.24948 | 55.37415 | 36 ft | 26 kts | 121° |
| 2026-05-08 16:26 | 25.24864 | 55.37565 | 40 ft | 20 kts | 122° |
| 2026-05-08 16:26 | 25.24800 | 55.37683 | 43 ft | 18 kts | 121° |
| 2026-05-08 16:27 | 25.24741 | 55.37790 | 45 ft | 15 kts | 121° |
| 2026-05-08 16:27 | 25.24689 | 55.37884 | 47 ft | 7 kts | 121° |
| 2026-05-08 16:27 | 25.24680 | 55.37938 | 48 ft | 7 kts | 75° |
| 2026-05-08 16:27 | 25.24716 | 55.37979 | 48 ft | 8 kts | 35° |
| 2026-05-08 16:28 | 25.24771 | 55.38017 | 48 ft | 10 kts | 20° |
| 2026-05-08 16:28 | 25.24835 | 55.37985 | 47 ft | 12 kts | 305° |
| 2026-05-08 16:28 | 25.24913 | 55.37842 | 44 ft | 48 kts | 301° |
| 2026-05-08 16:28 | 25.25219 | 55.37288 | 32 ft | 118 kts | 301° |
| 2026-05-08 16:29 | 25.25757 | 55.36338 | 126 ft | 166 kts | 300° |
| 2026-05-08 16:29 | 25.26367 | 55.35249 | 774 ft | 160 kts | 298° |
| 2026-05-08 16:29 | 25.26918 | 55.34218 | 1481 ft | 158 kts | 298° |
| 2026-05-08 16:29 | 25.27514 | 55.33092 | 1786 ft | 182 kts | 298° |
| 2026-05-08 16:30 | 25.28192 | 55.31833 | 2023 ft | 198 kts | 298° |
| 2026-05-08 16:30 | 25.28895 | 55.30457 | 2133 ft | 213 kts | 293° |
| 2026-05-08 16:30 | 25.29154 | 55.28825 | 2322 ft | 222 kts | 262° |
| 2026-05-08 16:30 | 25.28662 | 55.27201 | 2615 ft | 225 kts | 246° |
| 2026-05-08 16:31 | 25.27969 | 55.25636 | 2901 ft | 230 kts | 244° |
| 2026-05-08 16:31 | 25.27250 | 55.24047 | 3163 ft | 233 kts | 244° |
| 2026-05-08 16:31 | 25.26534 | 55.22434 | 3456 ft | 235 kts | 244° |
| 2026-05-08 16:31 | 25.25822 | 55.20807 | 3745 ft | 236 kts | 245° |
| 2026-05-08 16:32 | 25.25112 | 55.19171 | 4055 ft | 237 kts | 244° |
| 2026-05-08 16:32 | 25.24172 | 55.17665 | 4320 ft | 242 kts | 224° |
| 2026-05-08 16:32 | 25.22684 | 55.16784 | 4537 ft | 251 kts | 192° |
| 2026-05-08 16:32 | 25.20919 | 55.16720 | 4716 ft | 258 kts | 175° |
| 2026-05-08 16:33 | 25.19172 | 55.17209 | 4949 ft | 262 kts | 154° |
| 2026-05-08 16:33 | 25.17790 | 55.18505 | 5118 ft | 267 kts | 126° |
| 2026-05-08 16:33 | 25.16843 | 55.20305 | 5226 ft | 276 kts | 115° |
| 2026-05-08 16:33 | 25.15981 | 55.22242 | 5601 ft | 285 kts | 115° |
| 2026-05-08 16:34 | 25.15099 | 55.24203 | 6203 ft | 285 kts | 115° |
| 2026-05-08 16:34 | 25.14196 | 55.26157 | 6750 ft | 287 kts | 116° |
| 2026-05-08 16:34 | 25.13281 | 55.28100 | 7247 ft | 291 kts | 117° |
| 2026-05-08 16:34 | 25.12337 | 55.30086 | 7762 ft | 294 kts | 117° |
| 2026-05-08 16:35 | 25.11380 | 55.32087 | 8274 ft | 296 kts | 118° |
| 2026-05-08 16:35 | 25.10464 | 55.34132 | 8839 ft | 298 kts | 115° |
| 2026-05-08 16:35 | 25.09597 | 55.36217 | 9383 ft | 301 kts | 115° |
| 2026-05-08 16:35 | 25.08727 | 55.38328 | 9925 ft | 302 kts | 115° |
| 2026-05-08 16:36 | 25.07859 | 55.40443 | 10470 ft | 303 kts | 115° |
| 2026-05-08 16:36 | 25.07005 | 55.42584 | 10951 ft | 307 kts | 114° |
| 2026-05-08 16:36 | 25.06152 | 55.44792 | 11177 ft | 320 kts | 114° |
| 2026-05-08 16:36 | 25.05263 | 55.47102 | 11381 ft | 333 kts | 113° |
| 2026-05-08 16:37 | 25.04343 | 55.49497 | 11577 ft | 345 kts | 114° |
| 2026-05-08 16:37 | 25.03388 | 55.51977 | 11767 ft | 356 kts | 114° |
| 2026-05-08 16:37 | 25.02399 | 55.54513 | 11934 ft | 366 kts | 115° |
| 2026-05-08 16:37 | 25.01195 | 55.57028 | 12187 ft | 372 kts | 120° |
| 2026-05-08 16:38 | 24.99875 | 55.59489 | 12568 ft | 374 kts | 121° |
| 2026-05-08 16:38 | 24.98535 | 55.61953 | 12982 ft | 375 kts | 121° |
| 2026-05-08 16:38 | 24.97212 | 55.64387 | 13361 ft | 376 kts | 121° |
| 2026-05-08 16:38 | 24.95868 | 55.66867 | 13753 ft | 377 kts | 121° |
| 2026-05-08 16:39 | 24.94510 | 55.69345 | 14071 ft | 379 kts | 122° |
| 2026-05-08 16:39 | 24.93009 | 55.71752 | 14388 ft | 381 kts | 125° |
| 2026-05-08 16:39 | 24.91446 | 55.74121 | 14716 ft | 383 kts | 126° |
| 2026-05-08 16:39 | 24.89869 | 55.76492 | 15042 ft | 385 kts | 126° |
| 2026-05-08 16:40 | 24.88278 | 55.78886 | 15371 ft | 387 kts | 126° |
| 2026-05-08 16:40 | 24.86685 | 55.81283 | 15703 ft | 390 kts | 126° |
| 2026-05-08 16:40 | 24.85079 | 55.83702 | 16026 ft | 392 kts | 126° |
| 2026-05-08 16:40 | 24.83452 | 55.86133 | 16278 ft | 396 kts | 126° |
| 2026-05-08 16:41 | 24.81812 | 55.88554 | 16739 ft | 391 kts | 126° |
| 2026-05-08 16:41 | 24.80192 | 55.90946 | 17252 ft | 388 kts | 126° |
| 2026-05-08 16:41 | 24.78559 | 55.93297 | 17768 ft | 386 kts | 129° |
| 2026-05-08 16:42 | 24.74897 | 55.97528 | 18847 ft | 378 kts | 135° |
| 2026-05-08 16:42 | 24.72997 | 55.99493 | 19376 ft | 374 kts | 137° |
| 2026-05-08 16:42 | 24.71066 | 56.01444 | 19633 ft | 380 kts | 137° |
| 2026-05-08 16:42 | 24.69096 | 56.03425 | 19778 ft | 388 kts | 137° |
| 2026-05-08 16:43 | 24.67084 | 56.05457 | 19912 ft | 396 kts | 137° |
| 2026-05-08 16:43 | 24.65046 | 56.07529 | 20045 ft | 403 kts | 137° |
| 2026-05-08 16:43 | 24.62969 | 56.09651 | 20177 ft | 410 kts | 136° |
| 2026-05-08 16:43 | 24.60865 | 56.11805 | 20305 ft | 417 kts | 137° |
| 2026-05-08 16:44 | 24.58757 | 56.13967 | 20462 ft | 422 kts | 136° |
| 2026-05-08 16:44 | 24.56684 | 56.16325 | 20705 ft | 425 kts | 132° |
| 2026-05-08 16:44 | 24.54722 | 56.18712 | 20947 ft | 427 kts | 131° |
| 2026-05-08 16:44 | 24.52759 | 56.21171 | 21199 ft | 429 kts | 131° |
| 2026-05-08 16:45 | 24.50802 | 56.23662 | 21445 ft | 432 kts | 130° |
| 2026-05-08 16:45 | 24.48848 | 56.26166 | 21697 ft | 433 kts | 130° |
| 2026-05-08 16:45 | 24.46881 | 56.28687 | 21931 ft | 435 kts | 131° |
| 2026-05-08 16:45 | 24.44900 | 56.31222 | 22154 ft | 437 kts | 131° |
| 2026-05-08 16:46 | 24.42914 | 56.33757 | 22386 ft | 439 kts | 131° |
| 2026-05-08 16:46 | 24.40913 | 56.36299 | 22606 ft | 440 kts | 131° |
| 2026-05-08 16:46 | 24.38907 | 56.38844 | 22835 ft | 442 kts | 131° |
| 2026-05-08 16:46 | 24.36890 | 56.41402 | 23057 ft | 444 kts | 131° |
| 2026-05-08 16:47 | 24.34868 | 56.43969 | 23281 ft | 446 kts | 131° |
| 2026-05-08 16:47 | 24.32835 | 56.46547 | 23471 ft | 447 kts | 131° |
| 2026-05-08 16:47 | 24.30809 | 56.49116 | 23880 ft | 442 kts | 131° |
| 2026-05-08 16:47 | 24.28880 | 56.51689 | 24400 ft | 435 kts | 128° |
| 2026-05-08 16:48 | 24.27060 | 56.54339 | 24673 ft | 436 kts | 126° |
| 2026-05-08 16:48 | 24.25267 | 56.57072 | 24730 ft | 449 kts | 126° |
| 2026-05-08 16:48 | 24.23432 | 56.59909 | 24734 ft | 463 kts | 126° |
| 2026-05-08 16:48 | 24.21541 | 56.62824 | 24740 ft | 476 kts | 126° |
| 2026-05-08 16:49 | 24.19590 | 56.65803 | 24746 ft | 487 kts | 126° |
| 2026-05-08 16:49 | 24.17595 | 56.68823 | 24757 ft | 489 kts | 126° |
| 2026-05-08 16:49 | 24.15593 | 56.71835 | 24766 ft | 489 kts | 126° |
| 2026-05-08 16:49 | 24.13587 | 56.74845 | 24775 ft | 489 kts | 126° |
| 2026-05-08 16:50 | 24.11585 | 56.77845 | 24781 ft | 489 kts | 126° |
| 2026-05-08 16:50 | 24.09579 | 56.80850 | 24791 ft | 489 kts | 126° |
| 2026-05-08 16:50 | 24.07570 | 56.83860 | 24797 ft | 489 kts | 126° |
| 2026-05-08 16:50 | 24.05564 | 56.86861 | 24794 ft | 489 kts | 126° |
| 2026-05-08 16:51 | 24.03554 | 56.89867 | 24796 ft | 489 kts | 126° |
| 2026-05-08 16:51 | 24.01548 | 56.92868 | 24795 ft | 489 kts | 126° |
| 2026-05-08 16:51 | 23.99540 | 56.95868 | 24794 ft | 489 kts | 126° |
| 2026-05-08 16:51 | 23.97533 | 56.98867 | 24795 ft | 489 kts | 126° |
| 2026-05-08 16:52 | 23.95524 | 57.01866 | 24798 ft | 489 kts | 126° |
| 2026-05-08 16:52 | 23.93509 | 57.04870 | 24799 ft | 489 kts | 126° |
| 2026-05-08 16:52 | 23.91523 | 57.07833 | 24799 ft | 490 kts | 126° |
| 2026-05-08 16:52 | 23.89507 | 57.10840 | 24796 ft | 490 kts | 126° |
| 2026-05-08 16:53 | 23.85478 | 57.16836 | 24798 ft | 490 kts | 126° |
| 2026-05-08 16:53 | 23.83463 | 57.19834 | 24798 ft | 490 kts | 126° |
| 2026-05-08 16:53 | 23.82122 | 57.21826 | 24799 ft | 490 kts | 126° |
| 2026-05-08 16:54 | 23.79422 | 57.25838 | 24796 ft | 490 kts | 126° |
| 2026-05-08 16:54 | 23.77404 | 57.28835 | 24797 ft | 490 kts | 126° |
| 2026-05-08 16:54 | 23.76064 | 57.30824 | 24798 ft | 490 kts | 126° |
| 2026-05-08 16:54 | 23.74086 | 57.33842 | 24797 ft | 490 kts | 122° |
| 2026-05-08 16:55 | 23.72563 | 57.37149 | 24772 ft | 485 kts | 110° |
| 2026-05-08 16:55 | 23.71664 | 57.40659 | 24634 ft | 473 kts | 102° |
| 2026-05-08 16:55 | 23.71038 | 57.44126 | 24424 ft | 460 kts | 99° |
| 2026-05-08 16:55 | 23.70535 | 57.47580 | 23714 ft | 461 kts | 97° |
| 2026-05-08 16:56 | 23.70084 | 57.51045 | 22928 ft | 462 kts | 97° |
| 2026-05-08 16:56 | 23.69641 | 57.54504 | 22236 ft | 458 kts | 97° |
| 2026-05-08 16:56 | 23.69190 | 57.57928 | 21610 ft | 453 kts | 97° |
| 2026-05-08 16:56 | 23.68729 | 57.61298 | 20982 ft | 449 kts | 97° |
| 2026-05-08 16:57 | 23.68253 | 57.64658 | 20342 ft | 444 kts | 98° |
| 2026-05-08 16:57 | 23.67776 | 57.67971 | 19716 ft | 440 kts | 98° |
| 2026-05-08 16:57 | 23.67301 | 57.71220 | 19085 ft | 437 kts | 98° |
| 2026-05-08 16:57 | 23.66822 | 57.74479 | 18450 ft | 433 kts | 97° |
| 2026-05-08 16:58 | 23.66346 | 57.77710 | 17748 ft | 430 kts | 97° |
| 2026-05-08 16:58 | 23.65875 | 57.80914 | 17066 ft | 425 kts | 98° |
| 2026-05-08 16:58 | 23.65411 | 57.84077 | 16432 ft | 420 kts | 98° |
| 2026-05-08 16:58 | 23.64952 | 57.87204 | 15786 ft | 415 kts | 98° |
| 2026-05-08 16:59 | 23.64499 | 57.90288 | 15143 ft | 410 kts | 98° |
| 2026-05-08 16:59 | 23.64051 | 57.93344 | 14495 ft | 405 kts | 98° |
| 2026-05-08 16:59 | 23.63608 | 57.96362 | 13849 ft | 401 kts | 98° |
| 2026-05-08 16:59 | 23.63169 | 57.99344 | 13208 ft | 396 kts | 98° |
| 2026-05-08 17:00 | 23.62734 | 58.02271 | 12753 ft | 386 kts | 98° |
| 2026-05-08 17:00 | 23.62311 | 58.05136 | 12168 ft | 380 kts | 98° |
| 2026-05-08 17:00 | 23.61895 | 58.07967 | 11595 ft | 376 kts | 98° |
| 2026-05-08 17:00 | 23.61490 | 58.10719 | 11436 ft | 360 kts | 98° |
| 2026-05-08 17:01 | 23.61102 | 58.13355 | 11326 ft | 343 kts | 98° |
| 2026-05-08 17:01 | 23.60736 | 58.15866 | 11213 ft | 328 kts | 97° |
| 2026-05-08 17:01 | 23.60386 | 58.18270 | 11102 ft | 315 kts | 97° |
| 2026-05-08 17:01 | 23.60048 | 58.20589 | 10905 ft | 305 kts | 97° |
| 2026-05-08 17:02 | 23.59725 | 58.22877 | 10456 ft | 306 kts | 96° |
| 2026-05-08 17:02 | 23.59442 | 58.25176 | 10004 ft | 307 kts | 96° |
| 2026-05-08 17:02 | 23.59166 | 58.27495 | 9547 ft | 308 kts | 96° |
| 2026-05-08 17:02 | 23.58893 | 58.29816 | 9052 ft | 310 kts | 96° |
| 2026-05-08 17:03 | 23.58624 | 58.32116 | 8567 ft | 311 kts | 96° |
| 2026-05-08 17:03 | 23.58346 | 58.34485 | 8082 ft | 311 kts | 96° |
| 2026-05-08 17:03 | 23.58071 | 58.36827 | 7595 ft | 312 kts | 96° |
| 2026-05-08 17:03 | 23.57794 | 58.39168 | 7220 ft | 309 kts | 96° |
| 2026-05-08 17:04 | 23.57521 | 58.41470 | 6886 ft | 304 kts | 96° |
| 2026-05-08 17:04 | 23.57252 | 58.43717 | 6555 ft | 301 kts | 96° |
| 2026-05-08 17:04 | 23.56982 | 58.45971 | 6226 ft | 298 kts | 96° |
| 2026-05-08 17:04 | 23.56718 | 58.48197 | 5914 ft | 294 kts | 96° |
| 2026-05-08 17:05 | 23.56458 | 58.50371 | 5577 ft | 282 kts | 96° |
| 2026-05-08 17:05 | 23.56207 | 58.52464 | 5256 ft | 277 kts | 96° |
| 2026-05-08 17:05 | 23.55959 | 58.54534 | 4936 ft | 275 kts | 96° |
| 2026-05-08 17:05 | 23.55797 | 58.56600 | 4598 ft | 273 kts | 85° |
| 2026-05-08 17:06 | 23.56317 | 58.58553 | 4249 ft | 268 kts | 58° |
| 2026-05-08 17:06 | 23.57539 | 58.60053 | 3922 ft | 263 kts | 36° |
| 2026-05-08 17:06 | 23.59072 | 58.61087 | 3666 ft | 256 kts | 24° |
| 2026-05-08 17:06 | 23.60703 | 58.61809 | 3403 ft | 250 kts | 10° |
| 2026-05-08 17:07 | 23.62391 | 58.61732 | 3170 ft | 240 kts | 340° |
| 2026-05-08 17:07 | 23.63758 | 58.60795 | 3048 ft | 228 kts | 315° |
| 2026-05-08 17:07 | 23.64791 | 58.59517 | 3021 ft | 224 kts | 303° |
| 2026-05-08 17:07 | 23.65422 | 58.57979 | 3018 ft | 224 kts | 281° |
| 2026-05-08 17:08 | 23.65404 | 58.56291 | 3022 ft | 224 kts | 260° |
| 2026-05-08 17:08 | 23.65057 | 58.54632 | 3019 ft | 225 kts | 255° |
| 2026-05-08 17:08 | 23.64648 | 58.52999 | 3018 ft | 218 kts | 254° |
| 2026-05-08 17:08 | 23.64259 | 58.51455 | 3023 ft | 206 kts | 254° |
| 2026-05-08 17:09 | 23.63889 | 58.49981 | 3030 ft | 205 kts | 254° |
| 2026-05-08 17:09 | 23.63514 | 58.48475 | 3021 ft | 205 kts | 255° |
| 2026-05-08 17:09 | 23.63142 | 58.46977 | 3022 ft | 205 kts | 254° |
| 2026-05-08 17:09 | 23.62768 | 58.45474 | 2932 ft | 205 kts | 254° |
| 2026-05-08 17:10 | 23.62397 | 58.43980 | 2713 ft | 203 kts | 254° |
| 2026-05-08 17:10 | 23.62046 | 58.42509 | 2451 ft | 199 kts | 255° |
| 2026-05-08 17:10 | 23.61847 | 58.41016 | 2130 ft | 199 kts | 265° |
| 2026-05-08 17:10 | 23.61760 | 58.39530 | 1758 ft | 193 kts | 264° |
| 2026-05-08 17:11 | 23.61638 | 58.38134 | 1582 ft | 177 kts | 262° |
| 2026-05-08 17:11 | 23.61498 | 58.36838 | 1369 ft | 168 kts | 261° |
| 2026-05-08 17:11 | 23.61365 | 58.35603 | 1172 ft | 160 kts | 261° |
| 2026-05-08 17:11 | 23.61231 | 58.34429 | 935 ft | 152 kts | 262° |
| 2026-05-08 17:12 | 23.61158 | 58.33313 | 739 ft | 144 kts | 265° |
| 2026-05-08 17:12 | 23.61091 | 58.32253 | 551 ft | 137 kts | 264° |
| 2026-05-08 17:12 | 23.61012 | 58.31206 | 364 ft | 142 kts | 264° |
| 2026-05-08 17:12 | 23.60935 | 58.30117 | 185 ft | 143 kts | 265° |
| 2026-05-08 17:13 | 23.60869 | 58.29061 | 62 ft | 133 kts | 264° |
| 2026-05-08 17:13 | 23.60776 | 58.28155 | 35 ft | 103 kts | 270° |
| 2026-05-08 17:13 | 23.60729 | 58.27471 | 37 ft | 81 kts | 265° |
| 2026-05-08 17:13 | 23.60687 | 58.26931 | 40 ft | 56 kts | 264° |
| 2026-05-08 17:14 | 23.60657 | 58.26595 | 40 ft | 30 kts | 264° |
| 2026-05-08 17:14 | 23.60607 | 58.26490 | 39 ft | 14 kts | 206° |
| 2026-05-08 17:14 | 23.60502 | 58.26491 | 39 ft | 16 kts | 173° |
| 2026-05-08 17:14 | 23.60402 | 58.26537 | 39 ft | 16 kts | 117° |
| 2026-05-08 17:15 | 23.60401 | 58.26664 | 39 ft | 18 kts | 84° |
| 2026-05-08 17:15 | 23.60415 | 58.26807 | 39 ft | 20 kts | 85° |
| 2026-05-08 17:15 | 23.60426 | 58.26966 | 38 ft | 22 kts | 86° |
| 2026-05-08 17:15 | 23.60442 | 58.27140 | 38 ft | 24 kts | 84° |
| 2026-05-08 17:16 | 23.60455 | 58.27330 | 38 ft | 26 kts | 86° |
| 2026-05-08 17:16 | 23.60470 | 58.27533 | 37 ft | 28 kts | 85° |
| 2026-05-08 17:16 | 23.60487 | 58.27749 | 37 ft | 29 kts | 85° |
| 2026-05-08 17:16 | 23.60507 | 58.27977 | 36 ft | 31 kts | 85° |
| 2026-05-08 17:17 | 23.60522 | 58.28158 | 36 ft | 7 kts | 85° |
| 2026-05-08 17:17 | 23.60519 | 58.28217 | 36 ft | 8 kts | 112° |
| 2026-05-08 17:17 | 23.60474 | 58.28243 | 36 ft | 8 kts | 171° |
| 2026-05-08 17:17 | 23.60411 | 58.28251 | 36 ft | 10 kts | 174° |
| 2026-05-08 17:18 | 23.60354 | 58.28288 | 36 ft | 10 kts | 114° |
| 2026-05-08 17:18 | 23.60356 | 58.28368 | 36 ft | 11 kts | 82° |
| 2026-05-08 17:18 | 23.60394 | 58.28435 | 36 ft | 9 kts | 61° |
| 2026-05-08 17:18 | 23.60408 | 58.28504 | 36 ft | 10 kts | 87° |
| 2026-05-08 17:19 | 23.60410 | 58.28549 | 36 ft | 0 kts | 86° |
| 2026-05-08 17:19 | 23.60410 | 58.28551 | 36 ft | 0 kts | 86° |